Time;durP1;ratioP1;P1;durP2;ratioP2;P2;SDS_P1;SDS_P2;PMS_P1;PMS_P2;Temp;Humidity;BMP_temperature;BMP_pressure;BME280_temperature;BME280_humidity;BME280_pressure;Samples;Min_cycle;Max_cycle;Signal;HPM_P1;HPM_P2
2021/01/20 00:00:59;;;;;;;20.38;9.73;;;;;;;-9.00;65.59;93929.09;5113927;28;20034;-41
2021/01/20 00:03:24;;;;;;;25.73;11.55;;;;;;;-8.95;64.46;93931.28;5113555;28;20024;-42
2021/01/20 00:05:50;;;;;;;28.23;11.60;;;;;;;-8.96;65.41;93945.81;5114504;28;20492;-41
2021/01/20 00:08:15;;;;;;;28.55;12.95;;;;;;;-8.93;64.93;93945.75;5114442;28;20020;-41
2021/01/20 00:10:41;;;;;;;42.60;18.70;;;;;;;-9.09;64.91;93942.25;5114422;28;20513;-41
2021/01/20 00:13:07;;;;;;;57.53;24.73;;;;;;;-9.09;65.47;93939.56;5114182;28;20500;-41
2021/01/20 00:15:32;;;;;;;43.45;19.35;;;;;;;-9.09;65.79;93943.00;5114008;28;20027;-41
2021/01/20 00:17:58;;;;;;;33.45;17.38;;;;;;;-9.32;66.06;93951.09;5114165;27;20030;-41
2021/01/20 00:20:23;;;;;;;35.55;15.90;;;;;;;-9.52;67.09;93955.66;5114096;28;20027;-41
2021/01/20 00:22:49;;;;;;;36.08;15.73;;;;;;;-9.72;67.87;93957.53;5114251;28;20077;-41
2021/01/20 00:25:18;;;;;;;37.80;15.25;;;;;;;-9.59;68.41;93953.84;5113689;28;20023;-41
2021/01/20 00:27:43;;;;;;;26.67;12.63;;;;;;;-9.45;68.62;93950.94;5113963;28;20016;-42
2021/01/20 00:30:09;;;;;;;29.08;11.52;;;;;;;-9.39;68.21;93956.56;5113673;28;20051;-41
2021/01/20 00:32:35;;;;;;;27.98;11.38;;;;;;;-9.47;68.57;93950.59;5114003;28;20026;-41
2021/01/20 00:35:02;;;;;;;30.70;11.48;;;;;;;-9.38;68.01;93952.75;5113799;28;20023;-41
2021/01/20 00:37:28;;;;;;;24.35;11.38;;;;;;;-9.30;67.61;93949.53;5113924;27;20023;-41
2021/01/20 00:39:53;;;;;;;19.00;9.43;;;;;;;-9.35;66.64;93952.66;5113840;28;20439;-42
2021/01/20 00:42:19;;;;;;;20.90;10.13;;;;;;;-9.32;65.62;93953.75;5113821;28;20416;-42
2021/01/20 00:44:44;;;;;;;28.42;13.80;;;;;;;-9.22;65.55;93949.41;5113686;28;20515;-41
2021/01/20 00:47:09;;;;;;;40.40;18.45;;;;;;;-9.24;65.41;93957.06;5113705;28;20016;-41
2021/01/20 00:49:35;;;;;;;46.40;18.98;;;;;;;-9.27;65.13;93948.69;5113796;28;20072;-41
2021/01/20 00:52:00;;;;;;;38.95;19.67;;;;;;;-9.34;64.88;93951.50;5113502;28;20016;-41
2021/01/20 00:54:26;;;;;;;35.47;18.63;;;;;;;-9.27;64.67;93939.94;5113353;28;20597;-40
2021/01/20 00:56:51;;;;;;;29.00;17.38;;;;;;;-9.53;65.53;93952.22;5113373;28;20051;-41
2021/01/20 00:59:16;;;;;;;42.28;19.25;;;;;;;-9.56;65.82;93958.41;5113091;28;20023;-40
2021/01/20 01:01:42;;;;;;;40.88;19.42;;;;;;;-9.47;65.77;93952.50;5113436;28;20019;-41
2021/01/20 01:04:07;;;;;;;46.17;18.58;;;;;;;-9.38;64.84;93947.41;5113066;28;20020;-40
2021/01/20 01:06:32;;;;;;;38.78;18.40;;;;;;;-9.52;65.29;93943.06;5113268;28;20064;-41
2021/01/20 01:08:58;;;;;;;40.00;17.02;;;;;;;-9.64;65.04;93943.66;5113088;28;20118;-40
2021/01/20 01:11:23;;;;;;;20.48;11.25;;;;;;;-9.87;64.94;93943.66;5113247;28;20024;-40
2021/01/20 01:13:49;;;;;;;17.50;8.75;;;;;;;-10.04;64.71;93944.69;5113214;28;20073;-41
2021/01/20 01:16:14;;;;;;;15.85;6.82;;;;;;;-9.99;65.16;93946.16;5112901;28;20476;-41
2021/01/20 01:18:40;;;;;;;23.45;9.82;;;;;;;-9.87;65.85;93949.00;5112922;28;20024;-41
2021/01/20 01:21:05;;;;;;;16.50;6.57;;;;;;;-9.83;64.96;93940.94;5112803;27;20019;-41
2021/01/20 01:23:33;;;;;;;14.98;6.88;;;;;;;-9.69;64.66;93954.81;5112919;27;20492;-41
2021/01/20 01:25:58;;;;;;;51.45;20.05;;;;;;;-9.82;64.28;93951.22;5112821;28;20030;-41
2021/01/20 01:28:23;;;;;;;52.38;18.02;;;;;;;-9.75;64.33;93955.69;5112598;28;20027;-43
2021/01/20 01:30:49;;;;;;;39.50;15.60;;;;;;;-9.70;64.52;93955.22;5112750;28;20030;-41
2021/01/20 01:33:14;;;;;;;39.65;15.85;;;;;;;-9.83;64.52;93955.03;5112626;28;20047;-41
2021/01/20 01:35:40;;;;;;;23.63;12.65;;;;;;;-9.79;65.25;93957.66;5112034;28;20128;-41
2021/01/20 01:38:05;;;;;;;24.92;13.07;;;;;;;-9.87;65.10;93962.34;5112628;28;20034;-40
2021/01/20 01:40:31;;;;;;;29.75;11.48;;;;;;;-9.86;65.19;93944.41;5112611;28;20016;-40
2021/01/20 01:42:56;;;;;;;18.48;9.93;;;;;;;-10.07;65.46;93946.25;5112784;28;20428;-41
2021/01/20 01:45:22;;;;;;;16.23;8.02;;;;;;;-9.87;64.72;93945.59;5112258;28;20488;-40
2021/01/20 01:47:47;;;;;;;15.65;7.72;;;;;;;-10.41;65.32;93942.25;5112521;28;20024;-41
2021/01/20 01:50:13;;;;;;;21.33;9.25;;;;;;;-10.32;65.50;93939.81;5112484;28;20027;-41
2021/01/20 01:52:39;;;;;;;31.63;15.38;;;;;;;-10.57;66.05;93920.75;5112510;28;20028;-41
2021/01/20 01:55:06;;;;;;;21.48;9.32;;;;;;;-10.39;65.21;93922.00;5112249;28;20047;-41
2021/01/20 01:57:31;;;;;;;20.20;8.13;;;;;;;-10.30;65.30;93932.16;5112230;28;20015;-41
2021/01/20 01:59:57;;;;;;;48.97;21.52;;;;;;;-10.67;65.34;93937.66;5112279;28;20020;-41
2021/01/20 02:02:22;;;;;;;22.85;7.85;;;;;;;-10.42;65.13;93927.41;5111323;28;20100;-41
2021/01/20 02:04:47;;;;;;;37.03;15.20;;;;;;;-10.44;66.02;93933.16;5112084;28;20020;-41
2021/01/20 02:07:13;;;;;;;31.27;11.20;;;;;;;-10.42;65.92;93936.16;5112168;28;20023;-41
2021/01/20 02:09:38;;;;;;;20.02;9.35;;;;;;;-10.22;65.27;93933.59;5112147;28;20019;-41
2021/01/20 02:12:26;;;;;;;34.28;10.55;;;;;;;-10.34;65.52;93940.25;5112087;28;20027;-40
2021/01/20 02:15:11;;;;;;;20.98;10.93;;;;;;;-10.35;66.49;93941.38;5111720;28;20028;-42
2021/01/20 02:17:55;;;;;;;18.38;10.38;;;;;;;-10.30;66.10;93934.84;5112219;28;20420;-40
2021/01/20 02:20:57;;;;;;;19.90;9.23;;;;;;;-10.58;65.81;93935.25;5112056;28;20496;-41
2021/01/20 02:23:25;;;;;;;16.42;8.43;;;;;;;-10.53;65.35;93940.91;5112065;28;20027;-41
2021/01/20 02:26:13;;;;;;;19.38;10.23;;;;;;;-10.44;65.64;93943.06;5110924;28;20023;-40
2021/01/20 02:28:50;;;;;;;15.30;7.53;;;;;;;-10.28;65.44;93940.53;5110550;28;20435;-40
2021/01/20 02:31:16;;;;;;;18.98;7.65;;;;;;;-10.16;65.42;93939.97;5110709;28;20062;-41
2021/01/20 02:33:46;;;;;;;22.63;12.55;;;;;;;-10.24;66.70;93936.66;5111599;28;20031;-41
2021/01/20 02:36:12;;;;;;;51.55;20.38;;;;;;;-10.16;65.04;93924.72;5111725;28;20059;-41
2021/01/20 02:38:39;;;;;;;49.67;18.92;;;;;;;-10.11;65.15;93923.47;5110597;28;20027;-41
2021/01/20 02:41:04;;;;;;;41.88;19.98;;;;;;;-10.04;65.93;93923.34;5111864;28;20056;-41
2021/01/20 02:43:29;;;;;;;50.00;19.83;;;;;;;-9.90;65.32;93922.34;5111837;28;20581;-40
2021/01/20 02:45:55;;;;;;;40.22;21.05;;;;;;;-9.76;64.62;93917.50;5111870;28;20020;-42
2021/01/20 02:48:21;;;;;;;42.47;19.67;;;;;;;-9.80;64.40;93914.16;5115656;28;20031;-41
2021/01/20 02:50:46;;;;;;;34.40;14.82;;;;;;;-9.88;65.11;93912.78;5115809;28;20023;-40
2021/01/20 02:53:16;;;;;;;41.95;17.17;;;;;;;-10.02;64.87;93915.66;5114628;28;20023;-43
2021/01/20 02:55:46;;;;;;;42.28;17.75;;;;;;;-9.95;64.65;93907.56;5114511;28;20035;-41
2021/01/20 02:58:14;;;;;;;40.75;18.45;;;;;;;-9.89;64.32;93919.28;5115691;28;20028;-41
2021/01/20 03:00:40;;;;;;;43.42;19.17;;;;;;;-9.87;65.04;93916.22;5114469;28;20038;-41
2021/01/20 03:03:09;;;;;;;53.47;22.40;;;;;;;-9.77;64.96;93912.59;5114332;28;20036;-40
2021/01/20 03:05:35;;;;;;;52.25;22.02;;;;;;;-9.72;63.69;93914.81;5115695;28;20023;-41
2021/01/20 03:08:01;;;;;;;52.95;22.50;;;;;;;-9.87;64.30;93919.63;5114383;28;20106;-41
2021/01/20 03:10:26;;;;;;;47.35;22.02;;;;;;;-10.08;64.60;93917.31;5114187;28;20104;-42
2021/01/20 03:12:52;;;;;;;41.60;18.38;;;;;;;-10.13;65.01;93909.78;5114394;28;20469;-41
2021/01/20 03:15:38;;;;;;;44.30;20.52;;;;;;;-10.36;65.31;93912.44;5115092;28;20566;-41
2021/01/20 03:18:04;;;;;;;24.63;11.88;;;;;;;-10.45;65.11;93920.97;5113295;28;20492;-41
2021/01/20 03:20:30;;;;;;;23.80;10.50;;;;;;;-10.78;65.61;93926.41;5115360;28;20030;-40
2021/01/20 03:22:56;;;;;;;21.70;8.65;;;;;;;-10.63;65.17;93927.72;5115047;28;20024;-41
2021/01/20 03:25:21;;;;;;;29.77;10.75;;;;;;;-10.58;65.96;93925.34;5114998;28;20015;-41
2021/01/20 03:27:47;;;;;;;26.55;12.68;;;;;;;-10.46;67.05;93924.03;5115118;28;20515;-41
2021/01/20 03:30:13;;;;;;;24.00;12.93;;;;;;;-10.40;65.64;93930.41;5114909;28;20035;-41
2021/01/20 03:32:38;;;;;;;29.98;14.13;;;;;;;-10.35;66.01;93919.31;5115002;28;20416;-41
2021/01/20 03:35:04;;;;;;;45.95;20.08;;;;;;;-10.29;65.56;93923.00;5113653;28;20525;-41
2021/01/20 03:37:29;;;;;;;26.25;11.05;;;;;;;-10.15;65.75;93926.22;5114983;28;20027;-41
2021/01/20 03:39:55;;;;;;;28.20;13.65;;;;;;;-10.23;64.75;93921.38;5114855;28;20111;-40
2021/01/20 03:42:20;;;;;;;55.33;21.27;;;;;;;-10.18;63.88;93932.34;5114833;28;20023;-41
2021/01/20 03:44:46;;;;;;;56.22;19.25;;;;;;;-10.25;63.97;93929.81;5114923;28;20072;-41
2021/01/20 03:47:11;;;;;;;66.15;30.48;;;;;;;-10.43;64.61;93940.00;5114906;27;20027;-41
2021/01/20 03:49:36;;;;;;;56.28;23.02;;;;;;;-10.48;64.92;93937.75;5114544;28;20415;-41
2021/01/20 03:52:02;;;;;;;50.20;20.08;;;;;;;-10.59;64.89;93936.41;5114461;28;20495;-41
2021/01/20 03:54:27;;;;;;;27.52;11.70;;;;;;;-10.54;63.96;93928.72;5114553;28;20023;-41
2021/01/20 03:56:53;;;;;;;29.25;14.65;;;;;;;-10.52;63.88;93946.97;5114997;27;20035;-40
2021/01/20 03:59:18;;;;;;;48.85;22.25;;;;;;;-10.99;65.30;93944.19;5113983;28;20449;-40
2021/01/20 04:01:44;;;;;;;39.38;18.90;;;;;;;-11.14;67.00;93944.75;5114559;28;20020;-41
2021/01/20 04:04:09;;;;;;;45.15;22.00;;;;;;;-10.99;67.42;93949.50;5114599;27;20023;-41
2021/01/20 04:06:35;;;;;;;36.42;17.17;;;;;;;-10.62;67.06;93937.22;5114503;28;20417;-41
2021/01/20 04:09:01;;;;;;;28.00;14.35;;;;;;;-10.53;66.42;93940.91;5114426;28;20110;-40
2021/01/20 04:11:26;;;;;;;33.55;16.00;;;;;;;-10.57;67.04;93942.88;5114312;28;20093;-41
2021/01/20 04:13:52;;;;;;;37.63;17.00;;;;;;;-10.44;66.48;93949.16;5114182;28;20024;-40
2021/01/20 04:16:17;;;;;;;29.83;14.43;;;;;;;-10.25;65.87;93937.81;5114177;28;20019;-41
2021/01/20 04:18:43;;;;;;;32.75;16.65;;;;;;;-10.41;64.76;93929.66;5114247;28;20424;-41
2021/01/20 04:21:09;;;;;;;32.42;17.27;;;;;;;-10.19;65.93;93962.13;5114115;28;20479;-41
2021/01/20 04:23:37;;;;;;;34.75;16.35;;;;;;;-10.27;65.03;93950.06;5113937;28;20031;-41
2021/01/20 04:26:07;;;;;;;38.78;18.38;;;;;;;-10.37;66.09;93953.66;5114126;28;20110;-40
2021/01/20 04:28:33;;;;;;;51.05;22.73;;;;;;;-10.33;66.24;93954.34;5113501;28;20020;-41
2021/01/20 04:30:58;;;;;;;43.30;20.00;;;;;;;-10.07;65.97;93956.94;5113959;28;20407;-40
2021/01/20 04:33:24;;;;;;;58.13;23.77;;;;;;;-10.00;65.03;93960.69;5113888;27;20056;-41
2021/01/20 04:35:50;;;;;;;63.35;28.15;;;;;;;-9.95;64.94;93971.66;5114007;28;20023;-42
2021/01/20 04:38:15;;;;;;;62.72;29.38;;;;;;;-10.02;64.28;93973.66;5114015;28;20033;-41
2021/01/20 04:40:40;;;;;;;64.10;28.02;;;;;;;-9.97;64.34;93983.88;5113746;28;20027;-41
2021/01/20 04:43:06;;;;;;;55.67;25.50;;;;;;;-10.03;64.46;93977.50;5113730;28;20502;-41
2021/01/20 04:45:31;;;;;;;47.90;21.98;;;;;;;-10.17;65.47;93981.16;5113585;28;20025;-41
2021/01/20 04:47:59;;;;;;;51.13;22.58;;;;;;;-10.26;66.14;93980.91;5113617;28;20019;-41
2021/01/20 04:50:26;;;;;;;52.63;20.33;;;;;;;-10.12;66.38;93994.06;5113525;28;20016;-41
2021/01/20 04:52:53;;;;;;;52.50;19.98;;;;;;;-10.21;66.13;93986.56;5112324;28;20035;-41
2021/01/20 04:55:19;;;;;;;45.10;20.17;;;;;;;-9.96;66.30;93996.09;5112288;28;20028;-41
2021/01/20 04:57:44;;;;;;;45.78;21.35;;;;;;;-9.83;65.87;94000.44;5112362;28;20019;-41
2021/01/20 05:00:10;;;;;;;38.75;19.83;;;;;;;-10.04;65.58;94006.13;5112121;28;20026;-40
2021/01/20 05:02:36;;;;;;;39.42;18.40;;;;;;;-10.05;65.97;93992.00;5113354;28;20020;-42
2021/01/20 05:05:03;;;;;;;39.70;19.67;;;;;;;-9.84;65.05;94001.63;5113183;28;20023;-41
2021/01/20 05:07:29;;;;;;;50.00;20.23;;;;;;;-9.78;65.87;93993.88;5107743;28;20023;-41
2021/01/20 05:09:54;;;;;;;41.88;20.67;;;;;;;-9.79;66.55;94009.19;5112429;28;20149;-41
2021/01/20 05:12:42;;;;;;;60.30;21.00;;;;;;;-9.83;67.12;93992.44;5112934;28;20179;-40
2021/01/20 05:15:09;;;;;;;50.28;25.35;;;;;;;-9.57;66.26;94010.31;5112750;28;20058;-41
2021/01/20 05:17:36;;;;;;;53.58;22.25;;;;;;;-9.52;65.34;93996.50;5112955;28;20055;-40
2021/01/20 05:20:06;;;;;;;53.92;24.42;;;;;;;-9.59;65.57;94001.97;5113077;27;20032;-40
2021/01/20 05:22:31;;;;;;;58.00;25.40;;;;;;;-9.64;66.71;94013.13;5113065;28;20500;-42
2021/01/20 05:24:59;;;;;;;69.25;28.10;;;;;;;-9.59;66.22;94020.66;5112946;28;20134;-41
2021/01/20 05:27:31;;;;;;;75.43;30.02;;;;;;;-9.62;65.79;94026.06;5113106;28;20121;-41
2021/01/20 05:30:05;;;;;;;55.28;22.17;;;;;;;-9.66;65.46;94012.78;5112518;28;20123;-41
2021/01/20 05:32:31;;;;;;;52.00;23.58;;;;;;;-9.98;66.55;94012.50;5112713;28;20029;-41
2021/01/20 05:34:58;;;;;;;47.03;24.08;;;;;;;-9.90;67.06;94019.25;5109836;28;20477;-41
2021/01/20 05:37:23;;;;;;;50.03;22.40;;;;;;;-9.97;67.44;94014.03;5102420;28;20035;-41
2021/01/20 05:39:49;;;;;;;42.80;19.85;;;;;;;-10.41;69.00;94017.72;5105628;28;20016;-40
2021/01/20 05:42:14;;;;;;;31.73;17.48;;;;;;;-10.39;69.28;94017.31;5100666;28;20526;-41
2021/01/20 05:44:40;;;;;;;39.80;17.50;;;;;;;-10.34;69.21;94022.22;5093592;28;20499;-41
2021/01/20 05:47:13;;;;;;;35.67;16.00;;;;;;;-10.06;69.46;94021.78;5110329;28;20026;-41
2021/01/20 05:49:39;;;;;;;42.28;17.75;;;;;;;-9.89;68.90;94026.09;5111342;28;20034;-41
2021/01/20 05:52:14;;;;;;;34.33;16.92;;;;;;;-9.82;68.25;94028.69;5112237;28;20019;-41
2021/01/20 05:54:41;;;;;;;42.25;18.45;;;;;;;-9.72;66.51;94027.75;5099618;28;20638;-41
2021/01/20 05:57:15;;;;;;;67.55;25.95;;;;;;;-9.72;66.64;94022.41;5100694;28;20023;-41
2021/01/20 05:59:42;;;;;;;94.88;36.55;;;;;;;-9.70;66.46;94028.09;5112216;28;20023;-42
2021/01/20 06:02:12;;;;;;;100.00;37.17;;;;;;;-9.58;66.62;94024.84;5112206;28;20099;-41
2021/01/20 06:04:38;;;;;;;87.15;34.58;;;;;;;-9.49;66.80;94027.00;5112539;28;20098;-42
2021/01/20 06:07:08;;;;;;;85.60;40.13;;;;;;;-9.51;67.21;94024.00;5112045;28;20098;-42
2021/01/20 06:09:35;;;;;;;86.38;38.75;;;;;;;-9.70;67.48;94032.69;5096778;28;20016;-41
2021/01/20 06:12:03;;;;;;;87.97;36.17;;;;;;;-9.68;68.05;94033.78;5091720;28;20417;-42
2021/01/20 06:14:28;;;;;;;92.95;36.58;;;;;;;-9.53;68.31;94048.44;5108192;28;20111;-44
2021/01/20 06:17:02;;;;;;;70.03;33.95;;;;;;;-9.45;68.21;94038.38;5111967;28;20058;-42
2021/01/20 06:19:28;;;;;;;60.13;29.90;;;;;;;-9.43;68.25;94042.16;5112068;28;20035;-42
2021/01/20 06:21:54;;;;;;;52.70;21.92;;;;;;;-9.27;67.80;94038.09;5111876;28;20484;-43
2021/01/20 06:24:29;;;;;;;61.88;29.23;;;;;;;-9.04;67.54;94022.78;5112080;28;20015;-45
2021/01/20 06:27:14;;;;;;;90.95;40.83;;;;;;;-8.92;68.30;94027.50;5106824;28;20012;-42
2021/01/20 06:29:48;;;;;;;138.05;57.80;;;;;;;-8.93;68.60;94035.94;5090186;28;20600;-41
2021/01/20 06:32:18;;;;;;;185.45;76.60;;;;;;;-8.82;67.76;94037.28;5104428;28;20277;-42
2021/01/20 06:34:51;;;;;;;197.25;91.18;;;;;;;-8.90;67.45;94022.50;5090260;28;20458;-42
2021/01/20 06:37:33;;;;;;;137.20;63.15;;;;;;;-8.77;67.57;94022.66;5090330;28;20024;-42
2021/01/20 06:39:59;;;;;;;125.75;57.80;;;;;;;-8.42;67.04;94040.69;5092691;28;20024;-41
2021/01/20 06:42:32;;;;;;;111.30;54.78;;;;;;;-8.35;66.76;94042.44;5092202;28;20482;-41
2021/01/20 06:45:12;;;;;;;92.18;41.60;;;;;;;-8.12;65.46;94035.03;5091561;28;20012;-41
2021/01/20 06:47:59;;;;;;;69.15;35.88;;;;;;;-7.95;64.96;94039.25;5104917;28;20027;-41
2021/01/20 06:50:32;;;;;;;76.82;36.90;;;;;;;-7.86;66.04;94041.38;5111637;28;20024;-41
2021/01/20 06:53:05;;;;;;;93.60;41.47;;;;;;;-7.83;65.36;94041.28;5111713;28;20057;-42
2021/01/20 06:55:32;;;;;;;81.90;34.67;;;;;;;-7.76;65.16;94054.53;5111303;28;20092;-41
2021/01/20 06:58:26;;;;;;;89.90;39.38;;;;;;;-7.79;66.74;94047.31;5111652;28;20020;-42
2021/01/20 07:01:01;;;;;;;99.10;45.33;;;;;;;-7.67;66.53;94050.53;5111621;28;20077;-41
2021/01/20 07:03:42;;;;;;;110.20;48.80;;;;;;;-7.59;66.06;94055.31;5111628;28;20500;-42
2021/01/20 07:06:35;;;;;;;103.25;48.47;;;;;;;-7.44;65.53;94067.19;5111645;28;20043;-42
2021/01/20 07:09:01;;;;;;;117.13;53.72;;;;;;;-7.35;65.42;94051.28;5111550;28;20025;-42
2021/01/20 07:11:27;;;;;;;117.22;50.22;;;;;;;-7.17;65.37;94056.22;5111400;28;20032;-43
2021/01/20 07:13:52;;;;;;;122.78;50.65;;;;;;;-7.10;65.32;94045.28;5107301;28;20072;-43
2021/01/20 07:16:18;;;;;;;125.90;57.80;;;;;;;-6.87;64.29;94065.81;5097151;28;20028;-43
2021/01/20 07:18:48;;;;;;;127.82;56.90;;;;;;;-7.05;65.76;94063.56;5100678;28;20020;-42
2021/01/20 07:21:14;;;;;;;104.93;48.67;;;;;;;-6.80;65.90;94063.72;5107621;28;20493;-42
2021/01/20 07:23:40;;;;;;;108.03;51.83;;;;;;;-6.59;65.71;94075.81;5091051;28;20020;-42
2021/01/20 07:26:06;;;;;;;130.75;59.08;;;;;;;-6.85;65.82;94074.19;5108611;28;20068;-41
2021/01/20 07:28:32;;;;;;;123.63;57.67;;;;;;;-6.93;66.63;94073.63;5102331;28;20032;-41
2021/01/20 07:31:12;;;;;;;117.55;52.42;;;;;;;-6.41;66.23;94060.72;5091108;28;20028;-41
2021/01/20 07:33:50;;;;;;;109.63;52.75;;;;;;;-6.07;65.15;94075.53;5091680;28;20028;-42
2021/01/20 07:36:17;;;;;;;80.50;41.38;;;;;;;-5.95;65.78;94069.41;5094601;28;20117;-42
2021/01/20 07:38:47;;;;;;;123.15;52.70;;;;;;;-5.42;64.20;94084.72;5094678;28;20028;-43
2021/01/20 07:41:14;;;;;;;120.38;54.00;;;;;;;-4.68;62.34;94083.06;5094392;28;20495;-41
2021/01/20 07:43:40;;;;;;;120.72;51.33;;;;;;;-4.47;62.33;94070.06;5094527;28;20024;-43
2021/01/20 07:46:20;;;;;;;106.88;44.65;;;;;;;-4.19;61.57;94063.69;5094590;28;20045;-42
2021/01/20 07:48:46;;;;;;;91.50;40.78;;;;;;;-3.70;60.82;94072.66;5094138;28;20039;-42
2021/01/20 07:51:29;;;;;;;78.35;32.58;;;;;;;-3.10;58.98;94078.47;5092980;28;20485;-43
2021/01/20 07:54:03;;;;;;;68.78;32.10;;;;;;;-2.94;58.14;94078.22;5094345;28;20050;-42
2021/01/20 07:56:29;;;;;;;59.00;30.00;;;;;;;-2.61;57.46;94081.13;5094253;28;20035;-42
2021/01/20 07:58:56;;;;;;;68.25;32.67;;;;;;;-2.31;57.03;94080.25;5096456;28;20024;-42
2021/01/20 08:01:30;;;;;;;62.83;27.38;;;;;;;-2.10;56.05;94076.63;5093551;28;20039;-43
2021/01/20 08:03:58;;;;;;;62.10;28.35;;;;;;;-2.12;56.16;94075.59;5094159;28;20178;-43
2021/01/20 08:06:40;;;;;;;62.65;26.55;;;;;;;-2.10;56.26;94079.31;5094024;28;20480;-42
2021/01/20 08:09:05;;;;;;;73.60;31.70;;;;;;;-2.24;56.77;94092.72;5094068;28;20500;-42
2021/01/20 08:11:31;;;;;;;98.35;39.67;;;;;;;-2.05;56.85;94086.84;5099191;28;20024;-42
2021/01/20 08:13:58;;;;;;;84.72;32.75;;;;;;;-1.75;56.94;94090.56;5111920;28;20039;-42
2021/01/20 08:16:23;;;;;;;44.53;20.58;;;;;;;-1.38;55.51;94091.22;5100601;28;20020;-43
2021/01/20 08:18:49;;;;;;;46.58;23.05;;;;;;;-1.22;55.74;94093.59;5092510;28;20024;-42
2021/01/20 08:21:15;;;;;;;35.28;16.52;;;;;;;-0.23;54.51;94087.59;5096526;28;20031;-42
2021/01/20 08:23:57;;;;;;;23.80;13.35;;;;;;;0.84;51.24;94083.59;5114062;28;20050;-43
2021/01/20 08:26:27;;;;;;;27.20;14.35;;;;;;;1.79;48.73;94088.38;5108676;28;20019;-44
2021/01/20 08:29:06;;;;;;;40.35;19.45;;;;;;;2.64;47.95;94084.09;5105184;28;20054;-43
2021/01/20 08:31:32;;;;;;;26.02;13.48;;;;;;;3.05;46.03;94090.88;5104787;28;20031;-42
2021/01/20 08:34:19;;;;;;;30.95;14.13;;;;;;;2.24;47.98;94090.38;5099405;28;20492;-45
2021/01/20 08:37:00;;;;;;;44.30;22.65;;;;;;;2.74;48.58;94088.88;5092965;28;20408;-44
2021/01/20 08:39:26;;;;;;;32.70;17.60;;;;;;;3.86;46.65;94066.53;5093547;28;20136;-44
2021/01/20 08:42:32;;;;;;;28.40;14.35;;;;;;;5.40;43.12;94084.44;5093334;28;20186;-44
2021/01/20 08:45:30;;;;;;;23.05;12.38;;;;;;;4.11;46.31;94075.81;5089293;28;20040;-44
2021/01/20 08:48:07;;;;;;;28.13;14.75;;;;;;;3.52;48.42;94084.00;5090670;28;20064;-44
2021/01/20 08:50:42;;;;;;;18.80;11.52;;;;;;;5.16;45.56;94092.41;5093093;28;20103;-46
2021/01/20 08:53:25;;;;;;;49.03;22.70;;;;;;;6.36;41.95;94091.91;5093211;28;20020;-44
2021/01/20 08:55:52;;;;;;;43.10;22.38;;;;;;;7.42;39.85;94093.44;5093025;28;20556;-44
2021/01/20 08:58:21;;;;;;;18.67;10.68;;;;;;;8.48;36.85;94089.59;5110500;28;20031;-47
2021/01/20 09:00:48;;;;;;;15.47;7.87;;;;;;;8.67;34.25;94084.84;5113104;28;20027;-47
2021/01/20 09:03:28;;;;;;;12.73;6.75;;;;;;;9.31;33.86;94085.66;5106404;28;20081;-50
2021/01/20 09:05:55;;;;;;;14.02;8.50;;;;;;;10.24;33.08;94080.53;5092668;28;20484;-48
2021/01/20 09:08:21;;;;;;;21.95;13.32;;;;;;;10.71;31.49;94077.06;5092042;28;20020;-49
2021/01/20 09:10:48;;;;;;;16.65;10.52;;;;;;;11.08;31.17;94065.69;5092054;28;20103;-46
2021/01/20 09:13:14;;;;;;;15.38;8.48;;;;;;;11.66;30.08;94066.06;5091802;28;20028;-50
2021/01/20 09:15:40;;;;;;;12.85;7.68;;;;;;;12.33;28.73;94067.09;5091999;28;20024;-49
2021/01/20 09:18:06;;;;;;;13.80;8.88;;;;;;;12.69;29.22;94070.63;5092256;28;20386;-51
2021/01/20 09:20:33;;;;;;;10.52;7.53;;;;;;;13.21;27.71;94052.69;5092719;28;20028;-48
2021/01/20 09:22:58;;;;;;;10.77;7.00;;;;;;;13.89;26.69;94059.03;5097658;28;20030;-51
2021/01/20 09:25:24;;;;;;;11.40;7.85;;;;;;;14.44;25.86;94046.00;5101204;28;20016;-46
2021/01/20 09:27:49;;;;;;;12.85;7.22;;;;;;;14.86;25.12;94051.81;5103328;28;20036;-52
2021/01/20 09:30:15;;;;;;;10.10;7.18;;;;;;;15.01;24.67;94057.28;5109018;28;20052;-50
2021/01/20 09:32:41;;;;;;;11.68;7.97;;;;;;;15.01;24.25;94046.19;5107635;28;20019;-52
2021/01/20 09:35:10;;;;;;;11.52;7.45;;;;;;;14.99;23.60;94045.25;5097374;28;20020;-48
2021/01/20 09:37:37;;;;;;;11.13;7.10;;;;;;;14.83;24.08;94036.28;5103030;28;20020;-48
2021/01/20 09:40:10;;;;;;;12.57;8.10;;;;;;;14.71;24.55;94026.09;5100209;28;20026;-47
2021/01/20 09:42:37;;;;;;;10.82;7.28;;;;;;;15.24;23.93;94028.63;5099561;28;20023;-49
2021/01/20 09:45:03;;;;;;;12.20;7.13;;;;;;;15.19;23.74;94025.50;5101645;28;20012;-47
2021/01/20 09:47:29;;;;;;;9.35;6.57;;;;;;;15.12;24.04;94017.94;5102306;28;20030;-46
2021/01/20 09:49:54;;;;;;;10.18;7.13;;;;;;;15.85;22.39;94022.09;5102752;28;20090;-45
2021/01/20 09:52:25;;;;;;;11.27;7.05;;;;;;;16.08;23.11;94015.56;5100744;28;20488;-47
2021/01/20 09:54:51;;;;;;;10.13;6.50;;;;;;;15.08;23.76;94014.81;5100857;28;20024;-48
2021/01/20 09:57:16;;;;;;;11.15;6.78;;;;;;;15.69;23.30;94017.22;5104368;28;20522;-45
2021/01/20 09:59:42;;;;;;;10.27;6.35;;;;;;;16.51;22.53;94010.16;5103818;28;20027;-49
2021/01/20 10:02:07;;;;;;;12.25;6.75;;;;;;;16.03;21.90;94013.75;5111840;28;20032;-46
2021/01/20 10:04:33;;;;;;;9.18;5.80;;;;;;;15.89;22.66;94005.72;5111006;28;20027;-45
2021/01/20 10:06:58;;;;;;;10.07;5.70;;;;;;;16.52;21.68;94005.31;5104986;28;20038;-48
2021/01/20 10:09:25;;;;;;;9.07;5.75;;;;;;;14.02;24.32;93997.03;5091391;28;20485;-49
2021/01/20 10:11:51;;;;;;;8.73;5.93;;;;;;;13.53;24.75;93998.19;5091508;28;20028;-48
2021/01/20 10:14:17;;;;;;;9.65;6.85;;;;;;;12.69;26.37;93995.81;5090318;28;20024;-48
2021/01/20 10:16:46;;;;;;;21.30;12.40;;;;;;;12.48;27.39;93995.16;5097292;28;20032;-46
2021/01/20 10:19:13;;;;;;;12.55;7.13;;;;;;;13.73;25.92;93976.34;5103798;28;20063;-51
2021/01/20 10:21:38;;;;;;;11.43;6.57;;;;;;;13.99;27.10;93979.44;5111707;28;20412;-50
2021/01/20 10:24:04;;;;;;;10.80;6.45;;;;;;;14.91;24.63;93981.34;5111682;28;20030;-48
2021/01/20 10:26:30;;;;;;;6.85;4.45;;;;;;;14.50;25.01;93972.84;5111241;28;20581;-46
2021/01/20 10:28:55;;;;;;;12.10;6.60;;;;;;;15.00;24.43;93975.19;5093361;27;20131;-48
2021/01/20 10:31:20;;;;;;;7.35;4.78;;;;;;;15.34;23.94;93969.03;5105123;28;20111;-47
2021/01/20 10:33:46;;;;;;;6.25;4.57;;;;;;;14.81;24.41;93972.13;5107647;28;20034;-51
2021/01/20 10:36:11;;;;;;;6.40;4.35;;;;;;;13.85;25.86;93969.09;5091217;28;20028;-48
2021/01/20 10:38:37;;;;;;;12.32;7.35;;;;;;;13.94;26.37;93963.75;5091154;28;20016;-50
2021/01/20 10:41:02;;;;;;;7.93;4.63;;;;;;;14.19;25.57;93958.28;5093820;28;20016;-46
2021/01/20 10:43:28;;;;;;;7.10;4.65;;;;;;;13.65;28.23;93965.25;5091219;28;20085;-45
2021/01/20 10:45:54;;;;;;;8.23;5.05;;;;;;;11.94;30.13;93968.53;5104190;28;20020;-47
2021/01/20 10:48:19;;;;;;;7.38;4.80;;;;;;;10.67;31.64;93966.94;5132270;27;20031;-46
2021/01/20 10:50:44;;;;;;;7.70;4.82;;;;;;;11.00;31.65;93970.94;5132154;27;20037;-48
2021/01/20 10:53:10;;;;;;;7.32;5.07;;;;;;;11.81;30.70;93969.38;5096831;27;20089;-49
2021/01/20 10:55:35;;;;;;;11.35;4.72;;;;;;;12.21;30.79;93961.47;5092894;28;20031;-48
2021/01/20 10:58:01;;;;;;;8.73;5.50;;;;;;;12.34;31.36;93963.38;5105214;28;20404;-47
2021/01/20 11:00:26;;;;;;;9.13;5.85;;;;;;;12.46;31.36;93958.97;5091301;28;20479;-49
2021/01/20 11:02:51;;;;;;;8.88;5.25;;;;;;;11.42;31.94;93964.09;5092468;28;20032;-48
2021/01/20 11:05:17;;;;;;;14.77;7.93;;;;;;;11.39;32.99;93960.38;5092169;28;20046;-47
2021/01/20 11:07:42;;;;;;;14.90;7.80;;;;;;;12.03;32.40;93966.00;5091208;28;20020;-48
2021/01/20 11:10:09;;;;;;;10.85;5.68;;;;;;;12.21;32.10;93955.94;5094503;28;20026;-48
2021/01/20 11:12:34;;;;;;;7.50;4.70;;;;;;;11.51;31.92;93955.31;5100232;28;20390;-47
2021/01/20 11:14:59;;;;;;;16.05;5.38;;;;;;;11.38;32.58;93958.16;5094692;28;20050;-49
2021/01/20 11:17:26;;;;;;;5.68;3.85;;;;;;;11.06;32.82;93958.47;5097983;27;20028;-48
2021/01/20 11:19:52;;;;;;;8.73;4.93;;;;;;;10.57;33.51;93941.03;5094921;28;20092;-46
2021/01/20 11:22:17;;;;;;;6.88;4.97;;;;;;;11.00;34.05;93960.63;5094725;28;20412;-46